San Diego, California
Traffic Map
Current Weather Conditions
San Diego, California
Broken Clouds
Broken Clouds
70°
Feels Like: 70°
Wind Chill: 70° Ceiling: 1400
Heat Index: 70° Visibility: 10mi
Dew Point: 63° Wind: 3mph
Humidity: 78% Direction: 270° (W)
Pressure: 29.95in Gusts: 0mph
Raw Report DataKSAN 010651Z 27003KT 10SM BKN014 BKN200 21/17 A2995 RMK AO2 SLP140 T02110172
Traffic Incident Summary
Active as of:
Severity:
Category:
InformationThere was an issue retrieving the traffic information for this location. Please try a different location or try again shortly.
Advertisements
Track Severe Weather on mobile